Time;durP1;ratioP1;P1;durP2;ratioP2;P2;SDS_P1;SDS_P2;PMS_P1;PMS_P2;Temp;Humidity;BMP_temperature;BMP_pressure;BME280_temperature;BME280_humidity;BME280_pressure;Samples;Min_cycle;Max_cycle;Signal;HPM_P1;HPM_P2
2023/09/01 00:00:18;;;;;;;23.65;17.73;;;;;;;14.63;69.50;100628.56;682267;29;1165;-81
2023/09/01 00:00:49;;;;;;;19.83;17.77;;;;;;;14.66;69.86;100630.34;685000;28;1532;-81
2023/09/01 00:01:30;;;;;;;20.83;18.63;;;;;;;14.60;70.00;100628.53;685341;28;1418;-81
2023/09/01 00:02:06;;;;;;;21.15;18.95;;;;;;;14.65;69.78;100641.72;683565;28;1300;-81
2023/09/01 00:02:43;;;;;;;19.85;17.95;;;;;;;14.64;69.77;100639.97;684231;28;1403;-81
2023/09/01 00:03:05;;;;;;;18.95;17.15;;;;;;;14.62;69.89;100645.19;685047;28;1969;-81
2023/09/01 00:03:25;;;;;;;18.37;16.57;;;;;;;14.60;69.96;100632.91;690765;28;862;-80
2023/09/01 00:03:46;;;;;;;18.33;16.63;;;;;;;14.61;69.95;100645.16;681921;29;1316;-81
2023/09/01 00:04:06;;;;;;;20.00;18.07;;;;;;;14.60;69.72;100643.41;682980;28;1543;-81
2023/09/01 00:04:27;;;;;;;21.35;19.17;;;;;;;14.56;69.99;100636.38;682105;29;1250;-81
2023/09/01 00:04:48;;;;;;;21.10;18.90;;;;;;;14.60;69.81;100649.56;681811;29;1148;-81
2023/09/01 00:05:09;;;;;;;20.58;18.48;;;;;;;14.59;69.67;100641.66;681214;29;1622;-80
2023/09/01 00:05:33;;;;;;;20.65;18.65;;;;;;;14.59;69.84;100641.66;682259;28;1959;-81
2023/09/01 00:05:54;;;;;;;21.67;19.58;;;;;;;14.54;69.81;100636.34;679451;29;1325;-81
2023/09/01 00:06:15;;;;;;;22.20;20.00;;;;;;;14.55;69.94;100646.00;682523;28;1356;-81
2023/09/01 00:06:35;;;;;;;21.20;18.90;;;;;;;14.55;70.00;100639.88;685290;28;954;-81
2023/09/01 00:06:56;;;;;;;20.60;18.13;;;;;;;14.55;69.99;100650.38;688775;28;1000;-81
2023/09/01 00:07:16;;;;;;;19.63;17.50;;;;;;;14.53;69.74;100651.22;682139;29;1249;-80
2023/09/01 00:07:37;;;;;;;18.97;17.07;;;;;;;14.49;69.79;100644.19;682425;29;1989;-81
2023/09/01 00:07:57;;;;;;;18.50;16.70;;;;;;;14.47;69.87;100645.94;679843;29;1086;-80
2023/09/01 00:08:18;;;;;;;18.03;16.30;;;;;;;14.50;69.98;100645.09;684866;28;1215;-81
2023/09/01 00:08:39;;;;;;;19.48;17.38;;;;;;;14.47;69.90;100645.94;682693;28;1292;-81
2023/09/01 00:08:59;;;;;;;21.15;18.05;;;;;;;14.45;70.03;100644.16;679680;29;1347;-81
2023/09/01 00:09:20;;;;;;;22.10;18.80;;;;;;;14.45;69.95;100650.28;684829;28;1247;-81
2023/09/01 00:09:40;;;;;;;20.42;18.33;;;;;;;14.43;69.84;100644.13;685310;28;1009;-81
2023/09/01 00:10:01;;;;;;;20.07;18.17;;;;;;;14.44;69.93;100647.66;685093;28;1130;-81
2023/09/01 00:10:22;;;;;;;19.02;17.20;;;;;;;14.45;69.82;100644.16;685139;28;1116;-81
2023/09/01 00:10:42;;;;;;;19.08;17.17;;;;;;;14.45;69.80;100649.41;682486;29;1522;-81
2023/09/01 00:11:03;;;;;;;18.23;16.33;;;;;;;14.44;69.83;100653.75;684294;28;1314;-81
2023/09/01 00:11:24;;;;;;;18.73;16.80;;;;;;;14.39;69.96;100650.22;684640;28;1408;-81
2023/09/01 00:11:44;;;;;;;18.75;16.75;;;;;;;14.38;69.85;100643.22;679976;29;915;-81
2023/09/01 00:12:05;;;;;;;18.92;17.02;;;;;;;14.42;69.96;100650.25;678533;29;1101;-81
2023/09/01 00:12:26;;;;;;;19.20;17.27;;;;;;;14.41;69.90;100648.50;684932;28;1775;-81
2023/09/01 00:12:47;;;;;;;20.02;17.98;;;;;;;14.39;69.98;100651.09;684526;28;1690;-81
2023/09/01 00:13:07;;;;;;;20.43;18.23;;;;;;;14.36;69.98;100642.31;685529;28;1227;-81
2023/09/01 00:13:28;;;;;;;20.20;18.05;;;;;;;14.38;70.06;100644.09;685242;28;1188;-80
2023/09/01 00:13:48;;;;;;;19.63;17.63;;;;;;;14.41;70.12;100647.59;684898;28;1801;-80
2023/09/01 00:14:09;;;;;;;19.47;17.53;;;;;;;14.40;69.96;100652.00;684341;28;1421;-81
2023/09/01 00:14:29;;;;;;;19.20;17.30;;;;;;;14.40;70.07;100652.00;682529;29;1690;-80
2023/09/01 00:14:50;;;;;;;19.17;17.27;;;;;;;14.37;69.82;100644.06;682213;28;1855;-80
2023/09/01 00:15:11;;;;;;;19.58;17.58;;;;;;;14.38;69.76;100651.09;685356;28;1339;-81
2023/09/01 00:15:31;;;;;;;19.70;17.55;;;;;;;14.35;69.89;100643.16;685109;28;1157;-81
2023/09/01 00:15:52;;;;;;;20.23;17.73;;;;;;;14.34;69.83;100641.41;681905;29;1297;-81
2023/09/01 00:16:13;;;;;;;19.00;17.00;;;;;;;14.38;69.92;100651.09;683880;28;1501;-81
2023/09/01 00:16:33;;;;;;;18.45;16.60;;;;;;;14.33;69.98;100644.91;685248;28;1251;-81
2023/09/01 00:16:55;;;;;;;18.03;16.20;;;;;;;14.36;69.89;100650.19;685239;28;1396;-81
2023/09/01 00:17:16;;;;;;;19.45;17.42;;;;;;;14.36;69.75;100647.56;683822;28;1410;-81
2023/09/01 00:17:36;;;;;;;19.42;17.30;;;;;;;14.36;69.93;100651.06;687914;28;981;-81
2023/09/01 00:17:57;;;;;;;19.63;16.98;;;;;;;14.35;69.73;100656.31;679647;29;1287;-80
2023/09/01 00:18:18;;;;;;;20.25;16.77;;;;;;;14.34;69.85;100651.91;682231;28;1042;-81
2023/09/01 00:18:39;;;;;;;20.02;16.58;;;;;;;14.33;69.74;100655.41;679877;29;1283;-81
2023/09/01 00:18:59;;;;;;;18.30;16.40;;;;;;;14.33;69.81;100644.91;680365;29;1095;-81
2023/09/01 00:19:23;;;;;;;17.80;16.00;;;;;;;14.29;69.69;100643.09;682079;28;1279;-81
2023/09/01 00:19:43;;;;;;;17.40;15.70;;;;;;;14.30;69.74;100647.47;684620;28;1375;-81
2023/09/01 00:20:05;;;;;;;17.10;15.32;;;;;;;14.30;69.88;100650.09;684698;28;1426;-81
2023/09/01 00:20:26;;;;;;;16.83;15.13;;;;;;;14.28;69.74;100642.25;682735;29;847;-80
2023/09/01 00:20:47;;;;;;;17.17;15.38;;;;;;;14.25;69.71;100648.31;680105;29;1301;-81
2023/09/01 00:21:08;;;;;;;18.40;15.30;;;;;;;14.29;69.89;100648.34;684318;28;1657;-80
2023/09/01 00:21:30;;;;;;;17.80;15.50;;;;;;;14.28;69.79;100647.50;690135;28;1280;-81
2023/09/01 00:21:53;;;;;;;18.48;15.70;;;;;;;14.24;69.96;100646.56;684909;28;1216;-83
2023/09/01 00:22:13;;;;;;;18.02;16.13;;;;;;;14.27;69.74;100645.72;682163;28;1914;-81
2023/09/01 00:22:34;;;;;;;18.00;16.30;;;;;;;14.23;69.94;100639.56;682472;29;1809;-81
2023/09/01 00:22:55;;;;;;;19.40;17.48;;;;;;;14.29;69.71;100653.59;682377;29;1064;-81
2023/09/01 00:23:16;;;;;;;20.15;18.05;;;;;;;14.29;69.93;100650.97;682146;29;1056;-81
2023/09/01 00:23:36;;;;;;;19.70;17.40;;;;;;;14.28;69.96;100652.75;683533;28;1799;-81
2023/09/01 00:23:57;;;;;;;18.20;16.13;;;;;;;14.26;69.95;100643.97;685395;28;1222;-81
2023/09/01 00:24:18;;;;;;;18.30;16.50;;;;;;;14.27;69.91;100642.22;689352;28;1225;-80
2023/09/01 00:24:38;;;;;;;19.27;17.17;;;;;;;14.28;69.86;100641.34;684804;28;1410;-80
2023/09/01 00:25:01;;;;;;;20.02;18.00;;;;;;;14.31;69.79;100651.91;685063;28;1070;-81
2023/09/01 00:25:21;;;;;;;19.55;17.55;;;;;;;14.29;70.00;100650.97;687105;28;1201;-81
2023/09/01 00:25:42;;;;;;;19.80;17.70;;;;;;;14.30;69.79;100650.09;684505;28;1526;-81
2023/09/01 00:26:02;;;;;;;22.05;18.23;;;;;;;14.27;69.74;100644.84;684534;28;1451;-81
2023/09/01 00:26:23;;;;;;;22.67;18.85;;;;;;;14.24;69.97;100636.06;685026;28;1197;-81
2023/09/01 00:26:44;;;;;;;21.70;19.40;;;;;;;14.31;69.82;100649.28;683058;28;1834;-81
2023/09/01 00:27:05;;;;;;;21.48;19.38;;;;;;;14.32;69.84;100651.03;684456;28;1226;-81
2023/09/01 00:27:26;;;;;;;21.33;19.23;;;;;;;14.29;69.75;100649.25;682518;28;1922;-80
2023/09/01 00:27:46;;;;;;;20.55;18.45;;;;;;;14.30;69.96;100652.72;679815;29;1721;-81
2023/09/01 00:28:07;;;;;;;20.92;18.83;;;;;;;14.30;70.02;100650.09;682512;28;1564;-80
2023/09/01 00:28:27;;;;;;;21.20;19.13;;;;;;;14.30;69.97;100655.34;679511;29;1266;-81
2023/09/01 00:28:48;;;;;;;21.20;18.90;;;;;;;14.29;69.90;100649.25;679913;29;1095;-80
2023/09/01 00:29:09;;;;;;;21.05;18.73;;;;;;;14.28;69.96;100650.13;679805;29;1580;-81
2023/09/01 00:29:33;;;;;;;20.67;18.00;;;;;;;14.30;69.97;100656.25;680053;29;1129;-80
2023/09/01 00:29:53;;;;;;;20.42;18.23;;;;;;;14.30;70.00;100655.34;684896;28;1390;-81
2023/09/01 00:30:14;;;;;;;19.93;16.73;;;;;;;14.29;70.02;100654.50;684326;28;1906;-80
2023/09/01 00:30:50;;;;;;;22.85;17.63;;;;;;;14.31;69.70;100657.16;684527;28;1664;-81
2023/09/01 00:31:10;;;;;;;20.95;18.55;;;;;;;14.31;69.69;100655.38;686358;28;1831;-80
2023/09/01 00:31:33;;;;;;;19.67;17.67;;;;;;;14.31;69.87;100654.53;687281;28;1242;-81
2023/09/01 00:31:54;;;;;;;19.70;17.73;;;;;;;14.28;70.05;100649.22;685291;28;1458;-81
2023/09/01 00:32:14;;;;;;;19.60;17.63;;;;;;;14.29;70.02;100649.25;684618;28;1151;-80
2023/09/01 00:32:35;;;;;;;20.17;18.27;;;;;;;14.30;70.11;100650.09;685189;28;1430;-81
2023/09/01 00:32:56;;;;;;;20.33;18.30;;;;;;;14.33;70.05;100658.03;680670;29;1350;-81
2023/09/01 00:33:17;;;;;;;21.63;19.50;;;;;;;14.33;69.87;100656.28;689239;28;1585;-80
2023/09/01 00:33:38;;;;;;;22.67;20.47;;;;;;;14.33;69.96;100655.41;685097;28;1047;-81
2023/09/01 00:33:58;;;;;;;23.47;21.07;;;;;;;14.35;69.90;100664.16;684922;28;1041;-81
2023/09/01 00:34:19;;;;;;;25.00;21.35;;;;;;;14.34;70.01;100657.16;688429;28;1266;-81
2023/09/01 00:34:39;;;;;;;24.90;20.83;;;;;;;14.34;70.01;100660.69;686846;28;1249;-81
2023/09/01 00:35:00;;;;;;;23.05;20.30;;;;;;;14.35;70.01;100658.94;685008;28;1149;-80
2023/09/01 00:35:20;;;;;;;20.93;18.83;;;;;;;14.34;69.89;100665.03;690101;28;1237;-80
2023/09/01 00:35:41;;;;;;;20.38;18.27;;;;;;;14.37;70.08;100665.06;687067;28;1594;-81
2023/09/01 00:36:02;;;;;;;20.40;18.30;;;;;;;14.35;70.04;100664.16;690439;28;1400;-81
2023/09/01 00:36:23;;;;;;;21.25;19.05;;;;;;;14.39;70.15;100660.72;687713;28;1107;-80
2023/09/01 00:36:43;;;;;;;21.45;19.35;;;;;;;14.38;70.12;100664.22;687002;28;1631;-81
2023/09/01 00:37:04;;;;;;;21.23;19.13;;;;;;;14.41;70.21;100669.50;689378;28;1082;-81
2023/09/01 00:37:25;;;;;;;20.92;18.83;;;;;;;14.42;70.19;100671.25;685328;28;941;-80
2023/09/01 00:37:45;;;;;;;20.58;18.58;;;;;;;14.40;70.11;100667.75;686305;28;1556;-81
2023/09/01 00:38:06;;;;;;;20.40;18.50;;;;;;;14.41;69.93;100663.34;686158;28;1129;-81
2023/09/01 00:38:29;;;;;;;20.73;18.73;;;;;;;14.43;69.95;100673.00;690186;28;1135;-80
2023/09/01 00:38:50;;;;;;;22.08;19.98;;;;;;;14.42;69.96;100660.75;687345;28;1439;-81
2023/09/01 00:39:11;;;;;;;22.30;20.25;;;;;;;14.44;69.98;100669.50;677889;29;1309;-80
2023/09/01 00:39:31;;;;;;;22.90;20.70;;;;;;;14.42;70.08;100660.75;682379;29;1642;-81
2023/09/01 00:39:52;;;;;;;22.83;20.58;;;;;;;14.42;69.99;100666.00;681164;29;1519;-81
2023/09/01 00:40:12;;;;;;;23.60;21.20;;;;;;;14.42;69.90;100670.34;684800;28;1339;-81
2023/09/01 00:40:33;;;;;;;23.52;21.13;;;;;;;14.42;69.88;100666.00;685594;28;1200;-81
2023/09/01 00:40:54;;;;;;;23.45;21.13;;;;;;;14.43;69.79;100666.91;681636;28;1680;-81
2023/09/01 00:41:15;;;;;;;23.20;20.90;;;;;;;14.42;70.02;100663.38;684241;28;997;-81
2023/09/01 00:41:36;;;;;;;23.92;21.63;;;;;;;14.45;69.81;100668.66;679578;29;1267;-80
2023/09/01 00:41:57;;;;;;;24.60;22.10;;;;;;;14.41;69.74;100660.72;680503;28;1776;-81
2023/09/01 00:42:17;;;;;;;25.07;22.40;;;;;;;14.42;69.90;100658.13;681427;29;1440;-80
2023/09/01 00:42:38;;;;;;;25.48;21.90;;;;;;;14.44;69.93;100668.66;681938;29;1281;-80
2023/09/01 00:42:58;;;;;;;25.90;21.02;;;;;;;14.42;69.92;100666.00;682261;29;1028;-80
2023/09/01 00:43:19;;;;;;;23.10;20.07;;;;;;;14.41;69.88;100664.25;686837;28;1167;-80
2023/09/01 00:43:39;;;;;;;22.00;19.70;;;;;;;14.40;69.92;100657.25;685073;28;1307;-81
2023/09/01 00:44:00;;;;;;;21.83;19.73;;;;;;;14.41;69.71;100658.09;685055;28;1160;-81
2023/09/01 00:44:21;;;;;;;22.63;20.38;;;;;;;14.38;69.89;100651.97;684485;28;1675;-80
2023/09/01 00:44:42;;;;;;;22.13;19.92;;;;;;;14.37;69.81;100658.09;685128;28;1165;-80
2023/09/01 00:45:03;;;;;;;22.13;19.92;;;;;;;14.41;69.90;100660.72;687527;28;1061;-81
2023/09/01 00:45:24;;;;;;;21.77;19.67;;;;;;;14.40;69.94;100652.00;684224;28;1778;-81
2023/09/01 00:45:44;;;;;;;21.75;19.60;;;;;;;14.39;69.81;100656.34;679154;29;1110;-81
2023/09/01 00:46:05;;;;;;;21.63;19.50;;;;;;;14.40;69.82;100657.25;683718;28;1028;-81
2023/09/01 00:46:26;;;;;;;23.20;19.27;;;;;;;14.39;69.77;100656.34;682517;29;1752;-80
2023/09/01 00:46:47;;;;;;;23.50;19.50;;;;;;;14.38;69.95;100656.34;682519;29;1254;-81
2023/09/01 00:47:08;;;;;;;23.25;19.08;;;;;;;14.36;69.99;100647.56;685577;28;1794;-81
2023/09/01 00:47:28;;;;;;;21.42;19.23;;;;;;;14.41;69.96;100658.09;681904;29;2239;-80
2023/09/01 00:47:50;;;;;;;21.98;19.77;;;;;;;14.43;69.96;100659.03;683647;28;1112;-81
2023/09/01 00:48:12;;;;;;;23.30;20.98;;;;;;;14.43;69.92;100661.66;689141;28;1452;-80
2023/09/01 00:48:33;;;;;;;23.15;20.85;;;;;;;14.40;69.92;100657.25;690132;28;1655;-81
2023/09/01 00:48:57;;;;;;;22.88;20.58;;;;;;;14.43;69.92;100662.50;690359;28;1290;-81
2023/09/01 00:49:18;;;;;;;26.05;21.70;;;;;;;14.39;69.65;100653.72;687412;28;1061;-80
2023/09/01 00:49:40;;;;;;;26.88;22.60;;;;;;;14.40;69.72;100657.25;681534;29;1415;-80
2023/09/01 00:50:07;;;;;;;27.33;22.92;;;;;;;14.41;69.75;100658.09;682210;28;1591;-80
2023/09/01 00:50:28;;;;;;;24.67;22.08;;;;;;;14.40;70.04;100662.50;679830;29;1302;-81
2023/09/01 00:50:50;;;;;;;23.60;21.30;;;;;;;14.37;70.00;100657.19;684479;28;1111;-81
2023/09/01 00:51:11;;;;;;;22.67;20.40;;;;;;;14.37;69.87;100652.81;686022;28;1117;-81
2023/09/01 00:51:33;;;;;;;23.50;21.17;;;;;;;14.37;69.67;100657.19;687603;28;1310;-81
2023/09/01 00:51:54;;;;;;;23.90;21.50;;;;;;;14.38;69.81;100661.59;687105;28;1525;-81
2023/09/01 00:52:15;;;;;;;24.08;21.67;;;;;;;14.40;69.74;100662.50;684971;28;1122;-80
2023/09/01 00:52:35;;;;;;;23.20;20.90;;;;;;;14.37;70.00;100662.44;685027;28;1306;-81
2023/09/01 00:52:56;;;;;;;22.77;20.57;;;;;;;14.34;70.01;100657.16;682165;28;1451;-81
2023/09/01 00:53:19;;;;;;;22.45;20.35;;;;;;;14.32;69.96;100654.50;684223;28;1116;-81
2023/09/01 00:53:40;;;;;;;22.75;20.42;;;;;;;14.33;70.06;100653.66;680955;29;1660;-81
2023/09/01 00:54:02;;;;;;;23.13;20.70;;;;;;;14.38;69.87;100659.84;682220;29;1154;-81
2023/09/01 00:54:23;;;;;;;24.05;21.45;;;;;;;14.38;69.96;100662.47;682329;29;1581;-81
2023/09/01 00:54:44;;;;;;;24.10;21.40;;;;;;;14.40;69.81;100659.88;679956;29;991;-81
2023/09/01 00:55:05;;;;;;;23.98;21.00;;;;;;;14.38;69.97;100659.84;679913;29;1086;-81
2023/09/01 00:55:25;;;;;;;23.42;20.40;;;;;;;14.34;69.84;100652.81;680092;29;1597;-80
2023/09/01 00:55:46;;;;;;;22.13;19.92;;;;;;;14.34;69.78;100647.56;687140;28;1460;-82
2023/09/01 00:56:07;;;;;;;22.63;20.33;;;;;;;14.36;69.72;100656.31;690159;28;1177;-81
2023/09/01 00:56:28;;;;;;;22.33;20.02;;;;;;;14.36;69.61;100655.44;687061;28;1833;-81
2023/09/01 00:56:50;;;;;;;22.80;20.40;;;;;;;14.34;69.82;100654.53;687789;28;1092;-81
2023/09/01 00:57:11;;;;;;;22.90;20.55;;;;;;;14.32;69.74;100640.53;683244;28;1271;-80
2023/09/01 00:57:31;;;;;;;23.27;20.97;;;;;;;14.35;69.60;100653.66;684638;28;1560;-81
2023/09/01 00:57:53;;;;;;;23.15;20.90;;;;;;;14.31;69.83;100641.41;685084;28;1024;-81
2023/09/01 00:58:14;;;;;;;21.77;19.67;;;;;;;14.34;69.85;100654.53;681217;29;1114;-80
2023/09/01 00:58:35;;;;;;;21.20;19.10;;;;;;;14.30;69.98;100644.84;680609;29;1357;-81
2023/09/01 00:58:55;;;;;;;20.43;18.43;;;;;;;14.28;69.80;100642.25;682171;29;1044;-81
2023/09/01 00:59:16;;;;;;;21.30;19.17;;;;;;;14.28;69.88;100641.34;684151;28;1346;-81
2023/09/01 00:59:37;;;;;;;21.00;18.80;;;;;;;14.29;69.74;100638.75;684915;28;1118;-80
2023/09/01 00:59:58;;;;;;;20.75;18.55;;;;;;;14.27;69.82;100645.72;682287;29;1174;-81
2023/09/01 01:00:18;;;;;;;20.30;18.20;;;;;;;14.28;69.92;100646.59;682117;28;1081;-80
2023/09/01 01:00:39;;;;;;;20.30;18.30;;;;;;;14.28;69.90;100643.97;682761;28;1204;-80
2023/09/01 01:01:00;;;;;;;20.30;18.40;;;;;;;14.29;69.71;100648.34;679643;29;1473;-80
2023/09/01 01:01:20;;;;;;;20.50;18.50;;;;;;;14.25;69.76;100643.09;683874;28;1156;-81
2023/09/01 01:01:42;;;;;;;19.93;18.03;;;;;;;14.28;69.78;100649.22;682191;28;1508;-81
2023/09/01 01:02:04;;;;;;;19.65;17.70;;;;;;;14.25;69.69;100647.44;685016;28;1339;-81
2023/09/01 01:02:26;;;;;;;18.70;16.90;;;;;;;14.23;69.70;100642.19;682492;28;1052;-80
2023/09/01 01:02:48;;;;;;;18.65;16.85;;;;;;;14.21;70.01;100643.91;679570;29;1442;-81
2023/09/01 01:03:10;;;;;;;19.20;17.33;;;;;;;14.24;69.88;100650.94;682209;28;1131;-81
2023/09/01 01:03:33;;;;;;;20.50;18.50;;;;;;;14.23;69.87;100646.53;684979;28;1837;-81
2023/09/01 01:03:53;;;;;;;22.30;19.90;;;;;;;14.22;69.89;100653.56;687951;28;1404;-81
2023/09/01 01:04:14;;;;;;;23.63;20.55;;;;;;;14.22;69.71;100645.69;683399;28;1355;-81
2023/09/01 01:04:35;;;;;;;22.25;19.15;;;;;;;14.20;69.99;100643.91;682474;29;1085;-80
2023/09/01 01:04:56;;;;;;;19.73;17.80;;;;;;;14.22;69.87;100650.03;676843;29;1357;-81
2023/09/01 01:05:23;;;;;;;18.90;17.10;;;;;;;14.18;69.90;100635.09;683381;28;1081;-80
2023/09/01 01:05:58;;;;;;;18.70;16.90;;;;;;;14.20;69.80;100650.00;681636;28;1629;-81
2023/09/01 01:06:24;;;;;;;18.63;16.83;;;;;;;14.19;69.86;100643.00;681382;29;1537;-80
2023/09/01 01:07:12;;;;;;;19.80;17.90;;;;;;;14.18;69.97;100645.59;682127;28;1455;-81
2023/09/01 01:07:50;;;;;;;20.05;17.95;;;;;;;14.18;69.90;100646.50;675537;29;2278;-81
2023/09/01 01:08:17;;;;;;;23.42;19.40;;;;;;;14.18;69.79;100650.84;683722;28;1213;-81
2023/09/01 01:09:08;;;;;;;21.92;18.73;;;;;;;14.15;69.79;100646.47;682273;29;1535;-81
2023/09/01 01:09:53;;;;;;;21.40;18.17;;;;;;;14.16;69.87;100645.63;686715;28;1011;-80
2023/09/01 01:10:26;;;;;;;21.70;19.48;;;;;;;14.16;69.72;100643.00;684806;28;1407;-80
2023/09/01 01:11:01;;;;;;;20.70;18.60;;;;;;;14.16;69.93;100649.97;687802;28;1078;-81
2023/09/01 01:11:56;;;;;;;20.30;17.10;;;;;;;14.14;70.03;100644.72;686150;28;1025;-80
2023/09/01 01:12:29;;;;;;;20.17;17.40;;;;;;;14.15;69.79;100638.59;678160;29;1425;-81
2023/09/01 01:12:58;;;;;;;20.70;18.60;;;;;;;14.16;69.75;100643.00;687717;28;1257;-81
2023/09/01 01:13:21;;;;;;;22.00;19.80;;;;;;;14.12;70.12;100641.19;689960;28;1333;-81
2023/09/01 01:13:46;;;;;;;22.02;19.65;;;;;;;14.17;69.89;100650.00;682390;29;1451;-80
2023/09/01 01:14:14;;;;;;;21.58;19.27;;;;;;;14.14;69.72;100633.34;679416;29;1191;-81
2023/09/01 01:14:37;;;;;;;21.75;19.65;;;;;;;14.18;70.02;100641.25;684465;28;1973;-81
2023/09/01 01:15:01;;;;;;;22.73;20.52;;;;;;;14.11;69.75;100631.53;687626;28;1397;-80
2023/09/01 01:15:23;;;;;;;22.67;20.48;;;;;;;14.14;69.95;100634.22;684956;28;1648;-81
2023/09/01 01:15:44;;;;;;;22.65;20.35;;;;;;;14.18;70.18;100641.25;681734;29;1139;-80
2023/09/01 01:16:06;;;;;;;22.00;19.70;;;;;;;14.19;69.93;100645.63;682440;28;1172;-81
2023/09/01 01:16:28;;;;;;;21.05;18.95;;;;;;;14.16;69.68;100634.22;682288;29;1906;-80
2023/09/01 01:16:51;;;;;;;19.67;17.77;;;;;;;14.20;70.14;100641.28;681413;29;1176;-81
2023/09/01 01:17:14;;;;;;;18.67;16.85;;;;;;;14.20;69.69;100649.16;682617;28;1043;-81
2023/09/01 01:17:46;;;;;;;21.48;18.17;;;;;;;14.16;69.99;100643.00;683841;28;1334;-81
2023/09/01 01:18:11;;;;;;;23.67;20.38;;;;;;;14.20;69.76;100644.75;682336;28;1156;-80
2023/09/01 01:18:36;;;;;;;23.63;21.13;;;;;;;14.17;69.75;100639.50;683120;28;1504;-81
2023/09/01 01:19:04;;;;;;;23.08;20.67;;;;;;;14.16;69.63;100637.75;681673;29;1836;-80
2023/09/01 01:19:47;;;;;;;22.95;20.65;;;;;;;14.19;69.89;100648.25;684450;28;1333;-80
2023/09/01 01:20:13;;;;;;;22.13;19.92;;;;;;;14.19;69.59;100652.66;679730;29;1427;-81
2023/09/01 01:20:37;;;;;;;21.73;19.63;;;;;;;14.16;69.81;100642.09;682381;29;1165;-80
2023/09/01 01:21:10;;;;;;;21.58;19.48;;;;;;;14.16;69.95;100643.00;676801;29;1198;-81
2023/09/01 01:21:36;;;;;;;21.80;19.73;;;;;;;14.15;69.66;100643.84;681997;28;2012;-81
2023/09/01 01:21:59;;;;;;;22.70;20.40;;;;;;;14.14;69.50;100643.81;679763;29;1697;-81
2023/09/01 01:22:33;;;;;;;21.40;19.25;;;;;;;14.12;69.55;100638.56;684539;28;1216;-80
2023/09/01 01:23:10;;;;;;;20.17;18.17;;;;;;;14.14;69.77;100651.69;684924;28;1083;-81
2023/09/01 01:23:32;;;;;;;20.13;18.13;;;;;;;14.11;69.59;100650.81;681817;28;1025;-81
2023/09/01 01:23:53;;;;;;;24.23;19.38;;;;;;;14.09;69.82;100644.59;679585;29;1282;-81
2023/09/01 01:24:14;;;;;;;25.05;19.85;;;;;;;14.09;69.86;100649.00;681872;29;1300;-80
2023/09/01 01:24:35;;;;;;;26.05;20.40;;;;;;;14.07;69.70;100642.84;682635;28;1212;-81
2023/09/01 01:24:56;;;;;;;24.60;19.48;;;;;;;14.06;69.78;100643.69;682990;28;1320;-81
2023/09/01 01:25:17;;;;;;;27.45;20.55;;;;;;;14.08;69.88;100649.88;686328;28;1084;-80
2023/09/01 01:25:49;;;;;;;29.15;20.42;;;;;;;14.08;69.71;100650.72;683994;28;1912;-80
2023/09/01 01:26:14;;;;;;;21.02;18.70;;;;;;;14.05;69.77;100652.44;681352;28;1216;-81
2023/09/01 01:26:36;;;;;;;20.40;18.40;;;;;;;14.04;69.91;100648.94;684702;28;1480;-80
2023/09/01 01:26:56;;;;;;;22.27;19.98;;;;;;;14.03;69.84;100646.28;682226;29;1335;-81
2023/09/01 01:27:18;;;;;;;22.87;20.43;;;;;;;14.01;69.85;100642.78;686988;28;1095;-80
2023/09/01 01:27:57;;;;;;;21.42;19.23;;;;;;;14.01;70.01;100650.66;686905;28;1965;-81
2023/09/01 01:28:19;;;;;;;19.25;17.25;;;;;;;13.99;69.85;100648.00;684518;28;1181;-80
2023/09/01 01:28:40;;;;;;;19.33;17.25;;;;;;;13.96;69.82;100650.59;684302;28;1656;-80
2023/09/01 01:29:01;;;;;;;19.17;17.37;;;;;;;13.97;69.94;100653.22;679494;29;1191;-81
2023/09/01 01:29:22;;;;;;;18.13;16.27;;;;;;;13.92;70.09;100644.44;685035;28;1302;-81
2023/09/01 01:29:43;;;;;;;18.27;16.30;;;;;;;13.94;69.70;100644.44;687380;28;1654;-81
2023/09/01 01:30:07;;;;;;;19.20;17.13;;;;;;;13.94;69.76;100652.28;687836;28;1091;-80
2023/09/01 01:30:29;;;;;;;20.95;18.85;;;;;;;13.91;69.81;100650.53;682006;28;2138;-80
2023/09/01 01:30:51;;;;;;;19.88;17.98;;;;;;;13.93;69.98;100656.69;685638;28;2293;-81
2023/09/01 01:31:12;;;;;;;18.00;16.30;;;;;;;13.91;70.02;100650.53;684335;28;1294;-80
2023/09/01 01:31:33;;;;;;;18.50;16.70;;;;;;;13.90;69.91;100653.13;683794;28;1548;-80
2023/09/01 01:31:54;;;;;;;19.25;17.27;;;;;;;13.93;69.95;100655.78;683822;28;1658;-81
2023/09/01 01:32:15;;;;;;;19.67;17.40;;;;;;;13.91;70.03;100653.16;677248;29;1388;-80
2023/09/01 01:32:36;;;;;;;21.15;17.42;;;;;;;13.90;70.08;100656.63;682068;29;1298;-81
2023/09/01 01:32:57;;;;;;;21.30;18.45;;;;;;;13.91;70.17;100653.16;683155;28;1866;-80
2023/09/01 01:33:26;;;;;;;20.83;18.70;;;;;;;13.91;70.19;100653.16;684062;28;1171;-81
2023/09/01 01:33:49;;;;;;;20.17;18.17;;;;;;;13.92;69.92;100654.94;682241;29;1405;-81
2023/09/01 01:34:37;;;;;;;20.95;18.75;;;;;;;13.92;70.27;100651.41;685689;28;1809;-80
2023/09/01 01:35:06;;;;;;;20.55;18.55;;;;;;;13.92;69.98;100654.94;681372;28;1281;-81
2023/09/01 01:35:45;;;;;;;21.13;18.83;;;;;;;13.90;70.07;100661.88;687806;28;874;-80
2023/09/01 01:36:19;;;;;;;20.95;18.65;;;;;;;13.90;69.99;100656.63;686137;28;1210;-81
2023/09/01 01:36:42;;;;;;;20.50;18.40;;;;;;;13.89;70.12;100660.13;684805;28;1026;-81
2023/09/01 01:37:15;;;;;;;21.30;18.85;;;;;;;13.89;69.78;100654.88;687749;28;1080;-81
2023/09/01 01:37:47;;;;;;;20.55;17.80;;;;;;;13.86;70.04;100652.22;693054;28;1221;-81
2023/09/01 01:38:23;;;;;;;20.23;18.13;;;;;;;13.88;70.04;100653.09;684728;28;1089;-81
2023/09/01 01:38:49;;;;;;;20.05;18.15;;;;;;;13.87;69.93;100656.59;687845;28;1046;-80
2023/09/01 01:39:20;;;;;;;19.48;17.67;;;;;;;13.85;69.85;100651.31;684063;28;1386;-80
2023/09/01 01:39:42;;;;;;;20.73;18.75;;;;;;;13.86;70.00;100652.22;683031;28;1338;-80
2023/09/01 01:40:05;;;;;;;21.52;19.42;;;;;;;13.83;70.00;100649.56;683387;28;1150;-80
2023/09/01 01:40:30;;;;;;;20.75;18.65;;;;;;;13.83;70.08;100644.31;693099;28;1328;-81
2023/09/01 01:40:57;;;;;;;19.15;17.25;;;;;;;13.82;69.90;100650.41;686499;28;1594;-80
2023/09/01 01:41:33;;;;;;;19.60;17.45;;;;;;;13.79;70.06;100650.38;689754;28;1662;-80
2023/09/01 01:42:05;;;;;;;19.77;17.77;;;;;;;13.79;69.80;100653.00;691195;28;1258;-81
2023/09/01 01:42:28;;;;;;;18.95;17.25;;;;;;;13.75;69.91;100641.59;685029;28;1308;-80
2023/09/01 01:42:51;;;;;;;19.00;17.20;;;;;;;13.78;69.53;100651.25;687455;28;1092;-81
2023/09/01 01:43:12;;;;;;;20.00;17.95;;;;;;;13.77;70.00;100645.09;687026;28;1307;-80
2023/09/01 01:43:34;;;;;;;19.80;17.75;;;;;;;13.75;69.82;100646.84;690274;28;1286;-81
2023/09/01 01:43:57;;;;;;;19.05;17.13;;;;;;;13.76;69.72;100655.59;687439;28;1070;-81
2023/09/01 01:44:22;;;;;;;20.20;18.13;;;;;;;13.75;69.92;100651.22;686298;28;1763;-80
2023/09/01 01:44:47;;;;;;;21.20;18.58;;;;;;;13.68;69.76;100645.88;684514;28;1412;-81
2023/09/01 01:45:11;;;;;;;21.75;19.05;;;;;;;13.73;70.08;100658.16;682179;28;1530;-80
2023/09/01 01:45:34;;;;;;;20.48;18.48;;;;;;;13.70;69.72;100652.03;681978;29;1400;-81
2023/09/01 01:45:57;;;;;;;19.80;17.95;;;;;;;13.68;69.94;100651.13;684782;28;1117;-80
2023/09/01 01:46:19;;;;;;;18.35;16.55;;;;;;;13.68;69.84;100653.75;681407;28;1924;-80
2023/09/01 01:46:40;;;;;;;19.85;15.98;;;;;;;13.69;69.74;100650.25;682347;29;1840;-80
2023/09/01 01:47:03;;;;;;;17.95;14.80;;;;;;;13.67;69.92;100648.47;682148;28;1265;-81
2023/09/01 01:47:24;;;;;;;19.55;16.13;;;;;;;13.64;69.77;100638.81;684176;28;1249;-80
2023/09/01 01:47:45;;;;;;;18.40;16.40;;;;;;;13.69;69.99;100646.75;682605;28;1998;-80
2023/09/01 01:48:05;;;;;;;19.50;16.92;;;;;;;13.68;70.01;100655.47;682461;28;1304;-81
2023/09/01 01:48:26;;;;;;;18.70;16.70;;;;;;;13.63;69.75;100646.69;687564;28;1259;-81